Sharpsburg, Maryland
Current Conditions -  °F | °C
As of 1:53 PM on Thursday 23 Oct 2014 (Local Time) from KMRB Reporting Station
Broken Clouds Broken Clouds  
Wind Chill: 61°   Ceiling: 4200
Heat Index: 61°   Visibility: 10mi
Dew Point: 40°   Wind: 25mph
Humidity: 46%   Direction: 310°NW
Pressure: 29.93"   Gusts: 35mph
Location:  39.46°N, 77.75°W
Report Text: KMRB 231753Z 31022G30KT 10SM BKN042 16/04 A2993 RMK AO2 PK WND 31030/1752 SLP136 T01610044 10178 20106 58009
Loading
Personal Weather Stations






























Interactive Weather Map
Tropical Storm Tracking
New forecast layout! Learn more

10-Day Weather Forecast

Advertisements
Track Severe Weather on mobile